Terminal Aerodrome Forecast
Issued by NWS Denver/Boulder, CO

Home | Current Version | Previous Version | Text Only | Print | Product List | Glossary On
Versions: 1 2 3 4 5 6 7 8 9 10 11 12 13 14 15 16 17 18 19 20 21 22 23 24 25 26 27 28 29 30 31 32 33 34 35 36 37 38 39 40 41 42 43 44 45 46 47 48 49 50
000
FTUS45 KBOU 281849 AAA
TAFDEN
TAF AMD
KDEN 281849Z 2819/2924 24009KT P6SM FEW070
     FM281930 27012KT P6SM FEW080 SCT220
      TEMPO 2820/2824 28015G22KT
     FM290000 25008KT P6SM FEW080 SCT200
     FM290500 31009KT P6SM SCT080 SCT150
     FM290900 35012G21KT P6SM SCT070 SCT120
     FM291300 06008KT P6SM FEW080 SCT200
      TEMPO 2914/2918 05010G18KT
     FM292000 08008KT P6SM FEW120=

USA.gov is the U.S. government's official web portal to all federal, state and local government web resources and services.